createdAt,value
2023-01-03T00:01:29.232Z,7.54
2023-01-03T00:03:58.238Z,7.54
2023-01-03T00:06:30.365Z,7.53
2023-01-03T00:08:59.645Z,7.51
2023-01-03T00:11:56.371Z,7.49
2023-01-03T00:14:29.459Z,7.52
2023-01-03T00:17:01.454Z,7.49
2023-01-03T00:19:37.061Z,7.45
2023-01-03T00:22:04.736Z,7.36
2023-01-03T00:24:31.911Z,7.23
2023-01-03T00:26:59.030Z,7.21
2023-01-03T00:29:28.954Z,7.17
2023-01-03T00:31:56.110Z,7.11
2023-01-03T00:34:25.061Z,7.05
2023-01-03T00:36:52.303Z,6.99
2023-01-03T00:39:19.476Z,6.89
2023-01-03T00:41:54.076Z,6.91
2023-01-03T00:44:24.483Z,7.00
2023-01-03T00:46:53.023Z,6.92
2023-01-03T00:49:20.464Z,7.00
2023-01-03T00:51:47.561Z,6.94
2023-01-03T00:54:16.058Z,6.88
2023-01-03T00:56:44.132Z,6.82
2023-01-03T00:59:12.777Z,6.79
2023-01-03T01:01:53.244Z,6.75
2023-01-03T01:04:29.485Z,6.82
2023-01-03T01:07:09.558Z,6.79
2023-01-03T01:09:47.480Z,6.74
2023-01-03T01:12:17.147Z,6.65
2023-01-03T01:14:44.242Z,6.62
2023-01-03T01:17:22.429Z,6.67
2023-01-03T01:19:52.879Z,6.68
2023-01-03T01:22:30.179Z,6.59
2023-01-03T01:24:58.731Z,6.55
2023-01-03T01:27:25.923Z,6.52
2023-01-03T01:29:55.913Z,6.51
2023-01-03T01:32:23.172Z,6.49
2023-01-03T01:34:50.582Z,6.49
2023-01-03T01:37:17.749Z,6.43
2023-01-03T01:39:57.154Z,6.42
2023-01-03T01:42:48.896Z,6.51
2023-01-03T01:45:18.612Z,6.55
2023-01-03T01:47:51.540Z,6.57
2023-01-03T01:50:29.262Z,6.64
2023-01-03T01:53:21.844Z,6.68
2023-01-03T01:56:17.998Z,6.65
2023-01-03T01:58:47.984Z,6.63
2023-01-03T02:01:17.690Z,6.56
2023-01-03T02:03:51.194Z,6.52
2023-01-03T02:06:18.816Z,6.43
2023-01-03T02:08:46.182Z,6.40
2023-01-03T02:11:38.774Z,6.35
2023-01-03T02:14:27.810Z,6.24
2023-01-03T02:17:18.935Z,6.18
2023-01-03T02:19:58.079Z,6.32
2023-01-03T02:22:28.033Z,6.33
2023-01-03T02:25:14.789Z,6.30
2023-01-03T02:28:15.802Z,6.23
2023-01-03T02:31:01.402Z,6.23
2023-01-03T02:33:46.695Z,6.22
2023-01-03T02:36:25.068Z,6.24
2023-01-03T02:39:07.896Z,6.30
2023-01-03T02:41:38.043Z,6.32
2023-01-03T02:44:31.754Z,6.30
2023-01-03T02:47:12.554Z,6.24
2023-01-03T02:49:45.903Z,6.24
2023-01-03T02:52:21.806Z,6.21
2023-01-03T02:55:14.704Z,6.25
2023-01-03T02:58:07.597Z,6.22
2023-01-03T03:00:48.714Z,6.21
2023-01-03T03:03:21.010Z,6.22
2023-01-03T03:06:21.915Z,6.22
2023-01-03T03:08:52.494Z,6.21
2023-01-03T03:11:40.671Z,6.23
2023-01-03T03:14:18.405Z,6.25
2023-01-03T03:16:56.096Z,6.25
2023-01-03T03:19:52.945Z,6.28
2023-01-03T03:22:48.990Z,6.28
2023-01-03T03:25:33.262Z,6.33
2023-01-03T03:28:36.161Z,6.30
2023-01-03T03:31:11.973Z,6.30
2023-01-03T03:33:48.533Z,6.33
2023-01-03T03:36:51.150Z,6.36
2023-01-03T03:39:41.492Z,6.37
2023-01-03T03:42:42.769Z,6.34
2023-01-03T03:45:27.756Z,6.29
2023-01-03T03:48:29.053Z,6.27
2023-01-03T03:51:07.454Z,6.30
2023-01-03T03:53:42.925Z,6.32
2023-01-03T03:56:14.953Z,6.35
2023-01-03T03:58:44.511Z,6.43
2023-01-03T04:01:18.546Z,6.41
2023-01-03T04:03:50.753Z,6.40
2023-01-03T04:06:27.557Z,6.36
2023-01-03T04:08:54.728Z,6.37
2023-01-03T04:11:21.800Z,6.37
2023-01-03T04:13:48.927Z,6.32
2023-01-03T04:16:16.205Z,6.30
2023-01-03T04:18:46.330Z,6.30
2023-01-03T04:21:22.902Z,6.27
2023-01-03T04:23:50.364Z,6.25
2023-01-03T04:26:17.823Z,6.28
2023-01-03T04:28:45.439Z,6.28
2023-01-03T04:31:12.777Z,6.29
2023-01-03T04:33:43.057Z,6.27
2023-01-03T04:36:18.983Z,6.28
2023-01-03T04:38:56.134Z,6.25
2023-01-03T04:41:23.927Z,6.24
2023-01-03T04:44:08.796Z,6.22
2023-01-03T04:46:39.595Z,6.14
2023-01-03T04:49:10.832Z,6.11
2023-01-03T04:51:41.825Z,6.10
2023-01-03T04:54:09.385Z,6.08
2023-01-03T04:56:38.305Z,6.02
2023-01-03T04:59:13.381Z,6.05
2023-01-03T05:01:52.136Z,6.13
2023-01-03T05:04:19.791Z,6.14
2023-01-03T05:06:47.370Z,6.11
2023-01-03T05:09:14.487Z,6.13
2023-01-03T05:11:47.178Z,6.12
2023-01-03T05:14:20.888Z,6.14
2023-01-03T05:16:50.074Z,6.17
2023-01-03T05:19:17.214Z,6.18
2023-01-03T05:22:02.941Z,6.21
2023-01-03T05:24:48.901Z,6.22
2023-01-03T05:27:17.169Z,6.22
2023-01-03T05:30:02.463Z,6.19
2023-01-03T05:32:30.263Z,6.13
2023-01-03T05:35:01.905Z,6.09
2023-01-03T05:37:37.899Z,6.11
2023-01-03T05:40:05.489Z,6.03
2023-01-03T05:42:35.238Z,6.00
2023-01-03T05:45:02.382Z,5.90
2023-01-03T05:47:29.466Z,5.80
2023-01-03T05:50:00.175Z,5.83
2023-01-03T05:52:54.821Z,5.85
2023-01-03T05:55:22.942Z,5.82
2023-01-03T05:57:50.025Z,5.80
2023-01-03T06:00:20.280Z,5.75
2023-01-03T06:02:51.818Z,5.66
2023-01-03T06:05:24.386Z,5.58
2023-01-03T06:07:51.499Z,5.53
2023-01-03T06:10:33.998Z,5.55
2023-01-03T06:13:01.165Z,5.54
2023-01-03T06:15:30.990Z,5.54
2023-01-03T06:18:03.291Z,5.58
2023-01-03T06:20:33.553Z,5.62
2023-01-03T06:23:00.751Z,5.63
2023-01-03T06:25:29.844Z,5.65
2023-01-03T06:27:59.869Z,5.63
2023-01-03T06:30:31.991Z,5.69
2023-01-03T06:33:01.386Z,5.75
2023-01-03T06:35:31.057Z,5.79
2023-01-03T06:37:58.256Z,5.81
2023-01-03T06:40:37.029Z,5.79
2023-01-03T06:43:06.486Z,5.76
2023-01-03T06:45:55.246Z,5.80
2023-01-03T06:48:44.145Z,5.81
2023-01-03T06:51:33.558Z,5.81
2023-01-03T06:54:00.721Z,5.83
2023-01-03T06:56:37.729Z,5.84
2023-01-03T06:59:04.918Z,5.80
2023-01-03T07:01:32.048Z,5.78
2023-01-03T07:03:59.208Z,5.81
2023-01-03T07:06:28.649Z,5.78
2023-01-03T07:08:56.536Z,5.81
2023-01-03T07:11:25.631Z,5.84
2023-01-03T07:13:59.514Z,5.83
2023-01-03T07:16:41.688Z,5.83
2023-01-03T07:19:12.140Z,5.76
2023-01-03T07:21:42.081Z,5.74
2023-01-03T07:24:13.123Z,5.82
2023-01-03T07:26:40.583Z,5.83
2023-01-03T07:29:09.456Z,5.87
2023-01-03T07:31:41.235Z,5.81
2023-01-03T07:34:12.341Z,5.81
2023-01-03T07:36:39.458Z,5.75
2023-01-03T07:39:06.564Z,5.67
2023-01-03T07:41:52.758Z,5.67
2023-01-03T07:44:20.054Z,5.67
2023-01-03T07:46:47.214Z,5.64
2023-01-03T07:49:15.322Z,5.71
2023-01-03T07:51:44.606Z,5.72
2023-01-03T07:54:11.739Z,5.78
2023-01-03T07:56:38.846Z,5.76
2023-01-03T07:59:06.070Z,5.75
2023-01-03T08:01:33.645Z,5.79
2023-01-03T08:04:03.942Z,5.76
2023-01-03T08:06:31.181Z,5.73
2023-01-03T08:09:16.863Z,5.84
2023-01-03T08:12:02.826Z,5.96
2023-01-03T08:14:44.128Z,5.97
2023-01-03T08:17:11.256Z,6.14
2023-01-03T08:19:45.125Z,6.23
2023-01-03T08:22:15.643Z,6.17
2023-01-03T08:24:42.747Z,6.25
2023-01-03T08:27:20.355Z,6.28
2023-01-03T08:29:55.476Z,6.32
2023-01-03T08:32:31.074Z,6.16
2023-01-03T08:35:03.865Z,6.07
2023-01-03T08:37:31.476Z,6.34
2023-01-03T08:40:04.956Z,6.71
2023-01-03T08:42:33.878Z,6.73
2023-01-03T08:45:09.343Z,6.70
2023-01-03T08:47:38.961Z,6.51
2023-01-03T08:50:08.761Z,6.43
2023-01-03T08:52:35.816Z,6.25
2023-01-03T08:55:04.146Z,6.22
2023-01-03T08:57:32.004Z,6.22
2023-01-03T09:00:02.291Z,6.28
2023-01-03T09:02:29.568Z,6.21
2023-01-03T09:04:56.862Z,6.11
2023-01-03T09:07:24.040Z,6.11
2023-01-03T09:09:56.190Z,6.20
2023-01-03T09:12:27.810Z,6.25
2023-01-03T09:14:58.328Z,6.30
2023-01-03T09:17:27.814Z,6.23
2023-01-03T09:19:58.614Z,6.18
2023-01-03T09:22:27.768Z,6.19
2023-01-03T09:24:57.589Z,6.25
2023-01-03T09:27:24.776Z,6.37
2023-01-03T09:29:53.205Z,6.44
2023-01-03T09:32:20.732Z,6.50
2023-01-03T09:34:47.838Z,6.60
2023-01-03T09:37:15.702Z,6.53
2023-01-03T09:39:45.679Z,6.54
2023-01-03T09:42:39.675Z,6.77
2023-01-03T09:45:11.967Z,7.21
2023-01-03T09:47:45.951Z,7.35
2023-01-03T09:50:39.193Z,7.42
2023-01-03T09:53:39.798Z,7.31
2023-01-03T09:56:34.033Z,7.19
2023-01-03T09:59:30.892Z,7.24
2023-01-03T10:02:33.852Z,7.06
2023-01-03T10:05:10.920Z,6.99
2023-01-03T10:08:08.773Z,7.00
2023-01-03T10:10:47.066Z,6.99
2023-01-03T10:13:36.788Z,7.06
2023-01-03T10:16:26.514Z,7.04
2023-01-03T10:19:25.399Z,7.15
2023-01-03T10:21:59.935Z,7.24
2023-01-03T10:24:46.727Z,7.33
2023-01-03T10:27:25.145Z,7.41
2023-01-03T10:30:06.757Z,7.54
2023-01-03T10:32:55.365Z,7.70
2023-01-03T10:35:25.383Z,7.55
2023-01-03T10:38:05.915Z,7.49
2023-01-03T10:40:53.630Z,7.37
2023-01-03T10:43:57.583Z,7.37
2023-01-03T10:46:33.861Z,7.46
2023-01-03T10:49:28.561Z,7.41
2023-01-03T10:52:14.763Z,7.37
2023-01-03T10:55:11.249Z,7.55
2023-01-03T10:57:39.621Z,7.74
2023-01-03T11:00:38.300Z,7.79
2023-01-03T11:03:12.231Z,7.74
2023-01-03T11:05:42.089Z,7.74
2023-01-03T11:08:35.271Z,7.70
2023-01-03T11:11:03.486Z,7.83
2023-01-03T11:13:40.395Z,7.87
2023-01-03T11:16:23.565Z,7.63
2023-01-03T11:19:04.802Z,7.56
2023-01-03T11:21:41.039Z,7.63
2023-01-03T11:24:47.540Z,7.61
2023-01-03T11:28:03.757Z,7.61
2023-01-03T11:30:58.376Z,7.91
2023-01-03T11:33:44.807Z,8.19
2023-01-03T11:36:29.528Z,8.14
2023-01-03T11:39:34.900Z,8.12
2023-01-03T11:42:37.069Z,7.72
2023-01-03T11:45:27.677Z,7.49
2023-01-03T11:48:18.075Z,7.35
2023-01-03T11:51:11.220Z,7.34
2023-01-03T11:53:43.306Z,7.36
2023-01-03T11:56:29.846Z,7.31
2023-01-03T11:59:16.161Z,7.42
2023-01-03T12:02:05.154Z,7.53
2023-01-03T12:05:00.377Z,7.62
2023-01-03T12:07:47.566Z,7.45
2023-01-03T12:10:26.932Z,7.61
2023-01-03T12:13:02.686Z,7.52
2023-01-03T12:15:55.458Z,7.58
2023-01-03T12:18:37.598Z,7.74
2023-01-03T12:21:15.352Z,7.83
2023-01-03T12:23:42.612Z,8.01
2023-01-03T12:26:15.132Z,7.85
2023-01-03T12:28:52.746Z,7.43
2023-01-03T12:31:35.851Z,7.30
2023-01-03T12:34:19.066Z,7.47
2023-01-03T12:37:36.189Z,7.15
2023-01-03T12:40:08.287Z,6.89
2023-01-03T12:42:59.908Z,6.77
2023-01-03T12:45:41.621Z,6.72
2023-01-03T12:48:19.373Z,6.62
2023-01-03T12:50:54.604Z,6.57
2023-01-03T12:53:38.921Z,6.47
2023-01-03T12:56:39.533Z,6.59
2023-01-03T12:59:43.297Z,6.57
2023-01-03T13:02:31.846Z,6.65
2023-01-03T13:05:21.617Z,6.79
2023-01-03T13:08:12.408Z,6.99
2023-01-03T13:10:52.709Z,7.10
2023-01-03T13:13:29.633Z,7.10
2023-01-03T13:15:59.794Z,7.13
2023-01-03T13:18:34.136Z,7.13
2023-01-03T13:21:41.534Z,7.12
2023-01-03T13:24:09.247Z,7.07
2023-01-03T13:26:36.402Z,6.99
2023-01-03T13:29:34.233Z,7.00
2023-01-03T13:32:21.061Z,6.77
2023-01-03T13:34:54.146Z,6.77
2023-01-03T13:37:29.052Z,6.73
2023-01-03T13:40:10.433Z,6.82
2023-01-03T13:42:40.571Z,6.88
2023-01-03T13:45:17.576Z,6.82
2023-01-03T13:47:48.829Z,6.83
2023-01-03T13:50:30.221Z,6.85
2023-01-03T13:53:11.870Z,6.87
2023-01-03T13:55:56.703Z,7.04
2023-01-03T13:58:53.798Z,7.19
2023-01-03T14:02:00.049Z,7.25
2023-01-03T14:07:50.835Z,7.29
2023-01-03T14:10:38.746Z,7.29
2023-01-03T14:13:33.641Z,7.30
2023-01-03T14:16:08.945Z,7.19
2023-01-03T14:18:40.762Z,7.15
2023-01-03T14:21:25.413Z,7.03
2023-01-03T14:24:00.836Z,6.94
2023-01-03T14:26:31.781Z,6.92
2023-01-03T14:28:58.949Z,6.88
2023-01-03T14:31:56.032Z,6.80
2023-01-03T14:34:28.357Z,6.80
2023-01-03T14:37:05.491Z,6.89
2023-01-03T14:42:04.400Z,6.68
2023-01-03T14:44:33.336Z,6.51
2023-01-03T14:47:04.632Z,6.32
2023-01-03T14:49:43.923Z,6.18
2023-01-03T14:52:21.224Z,6.14
2023-01-03T14:54:58.518Z,6.13
2023-01-03T14:57:30.320Z,5.99
2023-01-03T15:00:00.979Z,5.91
2023-01-03T15:02:41.284Z,5.79
2023-01-03T15:05:43.111Z,5.90
2023-01-03T15:08:21.993Z,5.85
2023-01-03T15:10:59.973Z,5.84
2023-01-03T15:13:34.265Z,5.78
2023-01-03T15:16:06.116Z,5.71
2023-01-03T15:18:47.398Z,5.71
2023-01-03T15:21:21.822Z,5.69
2023-01-03T15:23:51.303Z,5.68
2023-01-03T15:26:37.969Z,5.67
2023-01-03T15:29:15.714Z,5.69
2023-01-03T15:32:01.751Z,5.67
2023-01-03T15:34:30.883Z,5.70
2023-01-03T15:37:02.620Z,5.72
2023-01-03T15:39:46.979Z,5.73
2023-01-03T15:42:47.941Z,5.66
2023-01-03T15:45:24.635Z,5.64
2023-01-03T15:47:55.943Z,5.58
2023-01-03T15:50:36.112Z,5.51
2023-01-03T15:53:06.740Z,5.42
2023-01-03T15:55:34.129Z,5.53
2023-01-03T15:58:04.673Z,5.47
2023-01-03T16:00:33.758Z,5.39
2023-01-03T16:03:01.962Z,5.28
2023-01-03T16:05:32.365Z,5.15
2023-01-03T16:07:59.765Z,5.09
2023-01-03T16:10:27.115Z,5.10
2023-01-03T16:12:54.894Z,5.18
2023-01-03T16:15:23.185Z,5.19
2023-01-03T16:17:51.599Z,5.13
2023-01-03T16:20:19.336Z,5.09
2023-01-03T16:23:00.564Z,5.18
2023-01-03T16:25:29.400Z,5.18
2023-01-03T16:27:57.003Z,5.18
2023-01-03T16:30:24.534Z,5.13
2023-01-03T16:32:52.064Z,5.17
2023-01-03T16:35:23.037Z,5.14
2023-01-03T16:37:50.514Z,5.11
2023-01-03T16:40:20.860Z,5.13
2023-01-03T16:42:48.765Z,5.09
2023-01-03T16:45:17.525Z,5.16
2023-01-03T16:47:45.243Z,5.13
2023-01-03T16:50:20.778Z,5.11
2023-01-03T16:52:52.602Z,5.13
2023-01-03T16:55:27.650Z,5.19
2023-01-03T16:57:55.978Z,5.23
2023-01-03T17:00:29.750Z,5.21
2023-01-03T17:03:00.205Z,5.20
2023-01-03T17:05:32.881Z,5.20
2023-01-03T17:08:06.822Z,5.18
2023-01-03T17:10:37.772Z,5.17
2023-01-03T17:13:13.061Z,5.11
2023-01-03T17:15:41.535Z,5.09
2023-01-03T17:18:20.603Z,5.09
2023-01-03T17:21:00.831Z,5.08
2023-01-03T17:23:31.148Z,4.94
2023-01-03T17:25:58.828Z,5.03
2023-01-03T17:28:26.538Z,5.03
2023-01-03T17:30:56.719Z,4.90
2023-01-03T17:33:31.984Z,4.87
2023-01-03T17:36:01.505Z,4.91
2023-01-03T17:38:32.561Z,4.77
2023-01-03T17:41:00.035Z,4.80
2023-01-03T17:43:29.144Z,4.75
2023-01-03T17:46:23.148Z,4.87
2023-01-03T17:49:10.357Z,4.97
2023-01-03T17:51:38.268Z,4.96
2023-01-03T17:54:05.698Z,5.07
2023-01-03T17:56:33.221Z,5.03
2023-01-03T17:59:00.944Z,5.10
2023-01-03T18:01:28.511Z,5.09
2023-01-03T18:03:56.093Z,5.08
2023-01-03T18:06:25.782Z,5.11
2023-01-03T18:08:53.813Z,5.01
2023-01-03T18:11:27.584Z,5.05
2023-01-03T18:13:55.163Z,5.04
2023-01-03T18:16:23.085Z,5.05
2023-01-03T18:18:50.990Z,4.95
2023-01-03T18:21:23.196Z,4.89
2023-01-03T18:23:55.747Z,4.85
2023-01-03T18:26:25.734Z,4.92
2023-01-03T18:28:53.792Z,4.94
2023-01-03T18:31:22.565Z,5.07
2023-01-03T18:33:50.387Z,5.05
2023-01-03T18:36:29.425Z,5.01
2023-01-03T18:39:06.983Z,4.99
2023-01-03T18:41:34.771Z,4.98
2023-01-03T18:44:02.215Z,5.01
2023-01-03T18:46:29.960Z,5.05
2023-01-03T18:49:00.204Z,5.06
2023-01-03T18:51:29.255Z,5.04
2023-01-03T18:53:59.065Z,5.10
2023-01-03T18:56:37.393Z,5.12
2023-01-03T18:59:13.611Z,5.08
2023-01-03T19:01:41.156Z,5.05
2023-01-03T19:04:08.826Z,5.08
2023-01-03T19:06:42.397Z,5.03
2023-01-03T19:09:19.017Z,4.97
2023-01-03T19:11:49.821Z,4.89
2023-01-03T19:14:17.487Z,4.93
2023-01-03T19:16:45.143Z,4.91
2023-01-03T19:19:12.553Z,4.88
2023-01-03T19:21:46.290Z,4.82
2023-01-03T19:24:38.537Z,4.76
2023-01-03T19:27:13.725Z,4.81
2023-01-03T19:29:41.644Z,4.59
2023-01-03T19:32:20.820Z,4.62
2023-01-03T19:34:48.197Z,4.49
2023-01-03T19:37:15.665Z,4.43
2023-01-03T19:39:43.504Z,4.35
2023-01-03T19:42:47.316Z,4.50
2023-01-03T19:45:30.684Z,4.47
2023-01-03T19:48:03.890Z,4.59
2023-01-03T19:50:34.110Z,4.67
2023-01-03T19:53:03.621Z,4.86
2023-01-03T19:55:33.877Z,4.87
2023-01-03T19:58:05.953Z,4.91
2023-01-03T20:00:37.177Z,4.92
2023-01-03T20:03:08.091Z,4.94
2023-01-03T20:05:37.542Z,4.89
2023-01-03T20:08:11.597Z,4.87
2023-01-03T20:10:47.805Z,4.87
2023-01-03T20:13:21.316Z,4.82
2023-01-03T20:15:50.678Z,4.88
2023-01-03T20:18:21.341Z,4.94
2023-01-03T20:20:49.071Z,4.89
2023-01-03T20:23:19.353Z,4.78
2023-01-03T20:25:47.250Z,4.83
2023-01-03T20:28:19.261Z,4.88
2023-01-03T20:30:47.216Z,4.82
2023-01-03T20:33:14.892Z,4.84
2023-01-03T20:38:30.095Z,4.89
2023-01-03T20:40:58.117Z,4.92
2023-01-03T20:43:26.057Z,4.89
2023-01-03T20:45:56.592Z,4.84
2023-01-03T20:48:26.161Z,4.94
2023-01-03T20:50:54.474Z,4.97
2023-01-03T20:53:29.590Z,5.02
2023-01-03T20:55:57.298Z,4.97
2023-01-03T20:58:25.755Z,4.98
2023-01-03T21:01:04.649Z,4.95
2023-01-03T21:03:38.651Z,4.97
2023-01-03T21:06:24.294Z,5.12
2023-01-03T21:08:55.607Z,5.11
2023-01-03T21:11:30.886Z,5.21
2023-01-03T21:13:59.957Z,5.23
2023-01-03T21:16:35.576Z,5.26
2023-01-03T21:19:16.226Z,5.38
2023-01-03T21:21:47.101Z,5.40
2023-01-03T21:24:19.235Z,5.21
2023-01-03T21:26:50.324Z,5.16
2023-01-03T21:29:20.237Z,5.25
2023-01-03T21:31:47.775Z,5.18
2023-01-03T21:34:21.057Z,5.18
2023-01-03T21:36:48.688Z,5.08
2023-01-03T21:39:17.037Z,5.18
2023-01-03T21:42:03.424Z,5.03
2023-01-03T21:44:30.733Z,5.01
2023-01-03T21:46:58.298Z,4.88
2023-01-03T21:49:27.087Z,4.77
2023-01-03T21:51:55.213Z,4.67
2023-01-03T21:54:23.001Z,4.63
2023-01-03T21:56:50.388Z,4.62
2023-01-03T21:59:19.966Z,4.59
2023-01-03T22:02:10.748Z,4.72
2023-01-03T22:04:38.166Z,4.57
2023-01-03T22:07:07.668Z,4.69
2023-01-03T22:09:53.667Z,4.67
2023-01-03T22:12:21.044Z,4.66
2023-01-03T22:14:48.766Z,4.61
2023-01-03T22:17:20.389Z,4.59
2023-01-03T22:19:48.468Z,4.47
2023-01-03T22:22:16.825Z,4.44
2023-01-03T22:24:44.576Z,4.52
2023-01-03T22:27:12.081Z,4.53
2023-01-03T22:29:39.583Z,4.25
2023-01-03T22:32:07.248Z,4.22
2023-01-03T22:34:34.778Z,4.19
2023-01-03T22:37:02.104Z,4.37
2023-01-03T22:39:29.463Z,4.38
2023-01-03T22:41:58.485Z,4.43
2023-01-03T22:44:25.903Z,4.42
2023-01-03T22:46:53.305Z,4.42
2023-01-03T22:49:20.659Z,4.43
2023-01-03T22:51:49.367Z,4.25
2023-01-03T22:54:16.944Z,4.23
2023-01-03T22:56:44.381Z,4.30
2023-01-03T22:59:11.771Z,4.28
2023-01-03T23:01:39.233Z,4.29
2023-01-03T23:04:08.804Z,4.50
2023-01-03T23:06:36.657Z,4.57
2023-01-03T23:09:04.404Z,4.57
2023-01-03T23:11:52.303Z,4.60
2023-01-03T23:14:23.684Z,4.62
2023-01-03T23:16:55.984Z,4.58
2023-01-03T23:19:26.441Z,4.50
2023-01-03T23:21:58.363Z,4.39
2023-01-03T23:24:25.689Z,4.38
2023-01-03T23:26:55.604Z,4.25
2023-01-03T23:29:24.200Z,4.41
2023-01-03T23:31:52.883Z,4.41
2023-01-03T23:34:20.295Z,4.43
2023-01-03T23:36:50.365Z,4.29
2023-01-03T23:39:18.719Z,4.33
2023-01-03T23:41:46.483Z,4.28
2023-01-03T23:44:14.010Z,4.20
2023-01-03T23:46:42.021Z,4.31
2023-01-03T23:49:12.505Z,4.26
2023-01-03T23:51:42.771Z,4.38
2023-01-03T23:54:11.189Z,4.20
2023-01-03T23:56:38.573Z,4.23
2023-01-03T23:59:06.000Z,4.13
